VTK605 UHMM-UHMP
Flight info
| Callsign | VTK605 |
|---|---|
| Flight time | 2h 1m |
| Altitude | 39000 |
| Route | TITAL T454 MAKUB |
| Aircraft | B736/M-SDE2E3FGHIRWXY/LB1 |
Departure
| Time | 2026-04-17 08:20 |
|---|---|
| Airport | Sokol Airport (UHMM) |
Arrival
| Time | 2026-04-17 10:21 |
|---|---|
| Airport | Pevek Airport (UHMP) |
| Time | Latitude | Longitude | Altitude | Speed | Heading |
|---|---|---|---|---|---|
| 2026-04-17 08:10 | 59.91375 | 150.72000 | 582 ft | 0 kts | 3° |
| 2026-04-17 08:15 | 59.91367 | 150.71999 | 582 ft | 4 kts | 4° |
| 2026-04-17 08:15 | 59.91341 | 150.71995 | 582 ft | 4 kts | 8° |
| 2026-04-17 08:15 | 59.91323 | 150.71986 | 582 ft | 2 kts | 42° |
| 2026-04-17 08:16 | 59.91317 | 150.71968 | 582 ft | 2 kts | 81° |
| 2026-04-17 08:16 | 59.91316 | 150.71945 | 582 ft | 2 kts | 90° |
| 2026-04-17 08:16 | 59.91316 | 150.71928 | 582 ft | 0 kts | 92° |
| 2026-04-17 08:17 | 59.91316 | 150.71941 | 582 ft | 4 kts | 92° |
| 2026-04-17 08:17 | 59.91314 | 150.72034 | 582 ft | 9 kts | 92° |
| 2026-04-17 08:17 | 59.91311 | 150.72187 | 582 ft | 13 kts | 92° |
| 2026-04-17 08:18 | 59.91304 | 150.72396 | 582 ft | 17 kts | 94° |
| 2026-04-17 08:18 | 59.91296 | 150.72632 | 582 ft | 16 kts | 93° |
| 2026-04-17 08:18 | 59.91322 | 150.72876 | 581 ft | 20 kts | 86° |
| 2026-04-17 08:18 | 59.91311 | 150.73174 | 582 ft | 21 kts | 110° |
| 2026-04-17 08:19 | 59.91216 | 150.73252 | 582 ft | 9 kts | 222° |
| 2026-04-17 08:19 | 59.91178 | 150.73160 | 582 ft | 11 kts | 231° |
| 2026-04-17 08:19 | 59.91125 | 150.73030 | 583 ft | 13 kts | 230° |
| 2026-04-17 08:19 | 59.91077 | 150.72857 | 583 ft | 19 kts | 268° |
| 2026-04-17 08:20 | 59.91093 | 150.72179 | 580 ft | 89 kts | 272° |
| 2026-04-17 08:20 | 59.91139 | 150.70479 | 642 ft | 149 kts | 273° |
| 2026-04-17 08:20 | 59.91220 | 150.68339 | 1343 ft | 153 kts | 270° |
| 2026-04-17 08:20 | 59.91239 | 150.66244 | 2282 ft | 153 kts | 272° |
| 2026-04-17 08:21 | 59.91261 | 150.63978 | 2861 ft | 178 kts | 275° |
| 2026-04-17 08:21 | 59.91300 | 150.61308 | 3211 ft | 211 kts | 275° |
| 2026-04-17 08:21 | 59.91348 | 150.58199 | 3614 ft | 235 kts | 274° |
| 2026-04-17 08:21 | 59.91241 | 150.54867 | 4194 ft | 254 kts | 252° |
| 2026-04-17 08:22 | 59.90153 | 150.52056 | 5029 ft | 266 kts | 213° |
| 2026-04-17 08:22 | 59.88401 | 150.50850 | 6148 ft | 265 kts | 183° |
| 2026-04-17 08:22 | 59.86594 | 150.51454 | 7162 ft | 269 kts | 154° |
| 2026-04-17 08:22 | 59.85148 | 150.53756 | 8092 ft | 271 kts | 124° |
| 2026-04-17 08:23 | 59.84489 | 150.57241 | 9015 ft | 273 kts | 90° |
| 2026-04-17 08:23 | 59.84883 | 150.60849 | 9993 ft | 270 kts | 59° |
| 2026-04-17 08:23 | 59.85974 | 150.63973 | 10622 ft | 285 kts | 51° |
| 2026-04-17 08:23 | 59.87245 | 150.67252 | 10885 ft | 312 kts | 51° |
| 2026-04-17 08:24 | 59.88558 | 150.70724 | 11563 ft | 322 kts | 52° |
| 2026-04-17 08:24 | 59.89891 | 150.74349 | 12487 ft | 325 kts | 52° |
| 2026-04-17 08:24 | 59.91224 | 150.78008 | 13477 ft | 328 kts | 51° |
| 2026-04-17 08:24 | 59.92810 | 150.81275 | 14358 ft | 330 kts | 40° |
| 2026-04-17 08:25 | 59.94590 | 150.84213 | 15182 ft | 334 kts | 38° |
| 2026-04-17 08:25 | 59.96416 | 150.87148 | 16008 ft | 339 kts | 38° |
| 2026-04-17 08:25 | 59.98267 | 150.90138 | 16862 ft | 344 kts | 38° |
| 2026-04-17 08:25 | 60.00134 | 150.93178 | 17717 ft | 349 kts | 38° |
| 2026-04-17 08:26 | 60.02023 | 150.96281 | 18522 ft | 354 kts | 38° |
| 2026-04-17 08:26 | 60.03936 | 150.99455 | 19288 ft | 358 kts | 39° |
| 2026-04-17 08:26 | 60.05853 | 151.02653 | 20064 ft | 361 kts | 39° |
| 2026-04-17 08:26 | 60.07802 | 151.05915 | 20794 ft | 366 kts | 39° |
| 2026-04-17 08:27 | 60.09762 | 151.09208 | 21510 ft | 371 kts | 39° |
| 2026-04-17 08:27 | 60.11749 | 151.12552 | 22237 ft | 375 kts | 39° |
| 2026-04-17 08:27 | 60.13761 | 151.15946 | 22972 ft | 379 kts | 40° |
| 2026-04-17 08:27 | 60.15786 | 151.19367 | 23686 ft | 383 kts | 40° |
| 2026-04-17 08:28 | 60.17144 | 151.21664 | 24073 ft | 386 kts | 40° |
| 2026-04-17 08:28 | 60.19210 | 151.25164 | 24629 ft | 391 kts | 40° |
| 2026-04-17 08:28 | 60.21297 | 151.28706 | 25208 ft | 395 kts | 40° |
| 2026-04-17 08:28 | 60.23408 | 151.32296 | 25774 ft | 399 kts | 40° |
| 2026-04-17 08:29 | 60.25534 | 151.35919 | 26322 ft | 403 kts | 39° |
| 2026-04-17 08:29 | 60.27691 | 151.39599 | 26861 ft | 408 kts | 39° |
| 2026-04-17 08:29 | 60.29857 | 151.43306 | 27415 ft | 411 kts | 40° |
| 2026-04-17 08:29 | 60.32054 | 151.47066 | 27916 ft | 415 kts | 40° |
| 2026-04-17 08:30 | 60.34266 | 151.50855 | 28426 ft | 419 kts | 40° |
| 2026-04-17 08:30 | 60.36496 | 151.54686 | 28909 ft | 423 kts | 40° |
| 2026-04-17 08:30 | 60.38749 | 151.58562 | 29358 ft | 427 kts | 40° |
| 2026-04-17 08:30 | 60.40984 | 151.62517 | 29869 ft | 429 kts | 41° |
| 2026-04-17 08:31 | 60.43196 | 151.66617 | 30289 ft | 433 kts | 42° |
| 2026-04-17 08:31 | 60.45412 | 151.70790 | 30607 ft | 437 kts | 43° |
| 2026-04-17 08:31 | 60.47647 | 151.75004 | 30918 ft | 441 kts | 42° |
| 2026-04-17 08:31 | 60.49911 | 151.79262 | 31235 ft | 444 kts | 42° |
| 2026-04-17 08:32 | 60.52184 | 151.83524 | 31628 ft | 446 kts | 42° |
| 2026-04-17 08:32 | 60.54462 | 151.87793 | 32092 ft | 445 kts | 43° |
| 2026-04-17 08:32 | 60.56738 | 151.92054 | 32490 ft | 446 kts | 43° |
| 2026-04-17 08:32 | 60.59026 | 151.96342 | 32856 ft | 448 kts | 43° |
| 2026-04-17 08:33 | 60.61317 | 152.00639 | 33249 ft | 448 kts | 43° |
| 2026-04-17 08:33 | 60.63610 | 152.04953 | 33628 ft | 449 kts | 43° |
| 2026-04-17 08:33 | 60.65910 | 152.09290 | 33982 ft | 450 kts | 43° |
| 2026-04-17 08:33 | 60.68207 | 152.13630 | 34298 ft | 451 kts | 43° |
| 2026-04-17 08:34 | 60.70515 | 152.18002 | 34590 ft | 452 kts | 43° |
| 2026-04-17 08:34 | 60.72821 | 152.22380 | 34897 ft | 452 kts | 43° |
| 2026-04-17 08:34 | 60.75127 | 152.26765 | 35211 ft | 453 kts | 43° |
| 2026-04-17 08:34 | 60.77427 | 152.31145 | 35507 ft | 453 kts | 43° |
| 2026-04-17 08:35 | 60.79729 | 152.35540 | 35832 ft | 452 kts | 43° |
| 2026-04-17 08:35 | 60.82031 | 152.39942 | 36134 ft | 452 kts | 43° |
| 2026-04-17 08:35 | 60.84334 | 152.44330 | 36402 ft | 453 kts | 43° |
| 2026-04-17 08:35 | 60.86623 | 152.48672 | 36659 ft | 454 kts | 43° |
| 2026-04-17 08:36 | 60.88945 | 152.53072 | 36897 ft | 455 kts | 43° |
| 2026-04-17 08:36 | 60.91276 | 152.57495 | 37202 ft | 455 kts | 43° |
| 2026-04-17 08:36 | 60.93596 | 152.61909 | 37531 ft | 454 kts | 43° |
| 2026-04-17 08:36 | 60.95909 | 152.66323 | 37808 ft | 454 kts | 44° |
| 2026-04-17 08:37 | 60.98220 | 152.70763 | 38024 ft | 456 kts | 44° |
| 2026-04-17 08:37 | 61.00550 | 152.75251 | 38139 ft | 460 kts | 43° |
| 2026-04-17 08:37 | 61.02887 | 152.79738 | 38367 ft | 460 kts | 43° |
| 2026-04-17 08:37 | 61.05222 | 152.84227 | 38771 ft | 457 kts | 44° |
| 2026-04-17 08:38 | 61.07548 | 152.88710 | 39006 ft | 457 kts | 44° |
| 2026-04-17 08:38 | 61.09872 | 152.93208 | 39136 ft | 458 kts | 44° |
| 2026-04-17 08:38 | 61.12205 | 152.97726 | 39167 ft | 461 kts | 44° |
| 2026-04-17 08:39 | 61.16891 | 153.06835 | 39168 ft | 461 kts | 44° |
| 2026-04-17 08:39 | 61.21546 | 153.15925 | 39159 ft | 459 kts | 44° |
| 2026-04-17 08:40 | 61.26173 | 153.25012 | 39159 ft | 456 kts | 44° |
| 2026-04-17 08:40 | 61.30763 | 153.34091 | 39165 ft | 454 kts | 44° |
| 2026-04-17 08:41 | 61.35343 | 153.43134 | 39168 ft | 453 kts | 45° |
| 2026-04-17 08:41 | 61.39910 | 153.52195 | 39164 ft | 453 kts | 45° |
| 2026-04-17 08:42 | 61.44468 | 153.61289 | 39173 ft | 453 kts | 45° |
| 2026-04-17 08:42 | 61.48993 | 153.70359 | 39165 ft | 454 kts | 45° |
| 2026-04-17 08:43 | 61.53555 | 153.79544 | 39147 ft | 455 kts | 45° |
| 2026-04-17 08:43 | 61.58121 | 153.88771 | 39153 ft | 456 kts | 45° |
| 2026-04-17 08:44 | 61.62687 | 153.98042 | 39157 ft | 456 kts | 45° |
| 2026-04-17 08:44 | 61.67254 | 154.07350 | 39155 ft | 457 kts | 45° |
| 2026-04-17 08:45 | 61.71815 | 154.16695 | 39150 ft | 457 kts | 45° |
| 2026-04-17 08:45 | 61.76373 | 154.26069 | 39150 ft | 458 kts | 45° |
| 2026-04-17 08:46 | 61.80928 | 154.35475 | 39150 ft | 458 kts | 45° |
| 2026-04-17 08:46 | 61.85476 | 154.44918 | 39151 ft | 458 kts | 45° |
| 2026-04-17 08:47 | 61.89993 | 154.54331 | 39160 ft | 458 kts | 45° |
| 2026-04-17 08:47 | 61.94533 | 154.63834 | 39167 ft | 459 kts | 45° |
| 2026-04-17 08:48 | 61.99081 | 154.73394 | 39171 ft | 459 kts | 46° |
| 2026-04-17 08:48 | 62.03622 | 154.82984 | 39164 ft | 460 kts | 45° |
| 2026-04-17 08:49 | 62.08162 | 154.92615 | 39170 ft | 460 kts | 45° |
| 2026-04-17 08:49 | 62.12695 | 155.02271 | 39184 ft | 460 kts | 46° |
| 2026-04-17 08:50 | 62.17225 | 155.11970 | 39184 ft | 461 kts | 46° |
| 2026-04-17 08:50 | 62.21746 | 155.21693 | 39191 ft | 461 kts | 46° |
| 2026-04-17 08:51 | 62.26275 | 155.31469 | 39184 ft | 461 kts | 46° |
| 2026-04-17 08:51 | 62.30789 | 155.41261 | 39193 ft | 461 kts | 46° |
| 2026-04-17 08:52 | 62.35304 | 155.51104 | 39194 ft | 461 kts | 46° |
| 2026-04-17 08:52 | 62.39806 | 155.60963 | 39183 ft | 461 kts | 46° |
| 2026-04-17 08:53 | 62.44291 | 155.70820 | 39184 ft | 460 kts | 46° |
| 2026-04-17 08:53 | 62.49159 | 155.79753 | 39191 ft | 460 kts | 36° |
| 2026-04-17 08:54 | 62.54379 | 155.87631 | 39181 ft | 460 kts | 35° |
| 2026-04-17 08:54 | 62.59633 | 155.95541 | 39181 ft | 460 kts | 36° |
| 2026-04-17 08:55 | 62.64864 | 156.03552 | 39180 ft | 460 kts | 37° |
| 2026-04-17 08:55 | 62.70068 | 156.11637 | 39183 ft | 460 kts | 36° |
| 2026-04-17 08:56 | 62.75275 | 156.19745 | 39185 ft | 460 kts | 36° |
| 2026-04-17 08:56 | 62.80483 | 156.27896 | 39190 ft | 460 kts | 36° |
| 2026-04-17 08:57 | 62.85689 | 156.36074 | 39182 ft | 461 kts | 37° |
| 2026-04-17 08:57 | 62.90905 | 156.44303 | 39197 ft | 461 kts | 37° |
| 2026-04-17 08:58 | 62.96064 | 156.52486 | 39203 ft | 461 kts | 37° |
| 2026-04-17 08:58 | 63.01297 | 156.60822 | 39211 ft | 461 kts | 37° |
| 2026-04-17 08:59 | 63.06487 | 156.69130 | 39221 ft | 461 kts | 37° |
| 2026-04-17 08:59 | 63.11678 | 156.77473 | 39224 ft | 461 kts | 37° |
| 2026-04-17 09:00 | 63.16835 | 156.85792 | 39228 ft | 461 kts | 37° |
| 2026-04-17 09:00 | 63.22010 | 156.94193 | 39233 ft | 461 kts | 37° |
| 2026-04-17 09:01 | 63.27218 | 157.02684 | 39232 ft | 461 kts | 37° |
| 2026-04-17 09:01 | 63.32354 | 157.11090 | 39232 ft | 462 kts | 37° |
| 2026-04-17 09:02 | 63.37556 | 157.19647 | 39246 ft | 462 kts | 37° |
| 2026-04-17 09:02 | 63.42689 | 157.28124 | 39246 ft | 462 kts | 37° |
| 2026-04-17 09:03 | 63.47881 | 157.36733 | 39241 ft | 461 kts | 37° |
| 2026-04-17 09:03 | 63.53027 | 157.45297 | 39248 ft | 461 kts | 37° |
| 2026-04-17 09:04 | 63.58169 | 157.53899 | 39251 ft | 461 kts | 37° |
| 2026-04-17 09:04 | 63.63300 | 157.62520 | 39251 ft | 461 kts | 38° |
| 2026-04-17 09:05 | 63.68399 | 157.71125 | 39247 ft | 461 kts | 37° |
| 2026-04-17 09:05 | 63.73522 | 157.79813 | 39249 ft | 461 kts | 37° |
| 2026-04-17 09:06 | 63.78652 | 157.88553 | 39247 ft | 461 kts | 37° |
| 2026-04-17 09:06 | 63.83776 | 157.97325 | 39245 ft | 462 kts | 38° |
| 2026-04-17 09:07 | 63.88901 | 158.06139 | 39254 ft | 462 kts | 38° |
| 2026-04-17 09:07 | 63.94022 | 158.14987 | 39254 ft | 463 kts | 38° |
| 2026-04-17 09:08 | 63.98314 | 158.22435 | 39247 ft | 463 kts | 38° |
| 2026-04-17 09:08 | 64.03435 | 158.31361 | 39253 ft | 463 kts | 38° |
| 2026-04-17 09:09 | 64.08545 | 158.40309 | 39253 ft | 463 kts | 38° |
| 2026-04-17 09:09 | 64.13643 | 158.49279 | 39253 ft | 462 kts | 38° |
| 2026-04-17 09:10 | 64.21247 | 158.62737 | 39251 ft | 461 kts | 38° |
| 2026-04-17 09:10 | 64.26320 | 158.71773 | 39247 ft | 461 kts | 38° |
| 2026-04-17 09:11 | 64.31387 | 158.80838 | 39243 ft | 460 kts | 38° |
| 2026-04-17 09:11 | 64.36438 | 158.89917 | 39237 ft | 460 kts | 38° |
| 2026-04-17 09:12 | 64.41478 | 158.99023 | 39239 ft | 460 kts | 38° |
| 2026-04-17 09:12 | 64.46511 | 159.08154 | 39240 ft | 460 kts | 38° |
| 2026-04-17 09:13 | 64.51541 | 159.17329 | 39234 ft | 460 kts | 39° |
| 2026-04-17 09:13 | 64.56563 | 159.26531 | 39234 ft | 460 kts | 39° |
| 2026-04-17 09:14 | 64.61585 | 159.35774 | 39235 ft | 460 kts | 39° |
| 2026-04-17 09:14 | 64.66567 | 159.44995 | 39239 ft | 459 kts | 39° |
| 2026-04-17 09:15 | 64.71600 | 159.54355 | 39239 ft | 459 kts | 39° |
| 2026-04-17 09:15 | 64.76598 | 159.63693 | 39235 ft | 460 kts | 39° |
| 2026-04-17 09:16 | 64.81560 | 159.73009 | 39230 ft | 459 kts | 39° |
| 2026-04-17 09:16 | 64.86553 | 159.82428 | 39229 ft | 460 kts | 39° |
| 2026-04-17 09:17 | 64.91529 | 159.91863 | 39227 ft | 459 kts | 39° |
| 2026-04-17 09:17 | 64.96504 | 160.01343 | 39237 ft | 459 kts | 39° |
| 2026-04-17 09:18 | 65.01466 | 160.10845 | 39226 ft | 459 kts | 40° |
| 2026-04-17 09:18 | 65.06421 | 160.20379 | 39230 ft | 458 kts | 40° |
| 2026-04-17 09:19 | 65.11361 | 160.29934 | 39215 ft | 457 kts | 40° |
| 2026-04-17 09:19 | 65.16284 | 160.39502 | 39219 ft | 457 kts | 40° |
| 2026-04-17 09:20 | 65.21193 | 160.49084 | 39222 ft | 456 kts | 40° |
| 2026-04-17 09:20 | 65.26113 | 160.58651 | 39222 ft | 456 kts | 39° |
| 2026-04-17 09:21 | 65.31111 | 160.67996 | 39219 ft | 456 kts | 38° |
| 2026-04-17 09:21 | 65.36115 | 160.77320 | 39223 ft | 455 kts | 39° |
| 2026-04-17 09:22 | 65.41100 | 160.86695 | 39220 ft | 455 kts | 39° |
| 2026-04-17 09:22 | 65.46064 | 160.96110 | 39230 ft | 455 kts | 39° |
| 2026-04-17 09:23 | 65.51028 | 161.05583 | 39232 ft | 455 kts | 39° |
| 2026-04-17 09:23 | 65.55990 | 161.15101 | 39226 ft | 455 kts | 39° |
| 2026-04-17 09:24 | 65.60938 | 161.24641 | 39230 ft | 455 kts | 39° |
| 2026-04-17 09:24 | 65.65888 | 161.34228 | 39241 ft | 455 kts | 39° |
| 2026-04-17 09:25 | 65.70825 | 161.43841 | 39238 ft | 455 kts | 39° |
| 2026-04-17 09:25 | 65.75749 | 161.53479 | 39241 ft | 455 kts | 39° |
| 2026-04-17 09:26 | 65.80674 | 161.63164 | 39246 ft | 454 kts | 40° |
| 2026-04-17 09:26 | 65.85581 | 161.72861 | 39251 ft | 454 kts | 40° |
| 2026-04-17 09:27 | 65.90484 | 161.82605 | 39256 ft | 453 kts | 40° |
| 2026-04-17 09:27 | 65.95342 | 161.92304 | 39255 ft | 453 kts | 40° |
| 2026-04-17 09:28 | 66.00220 | 162.02096 | 39248 ft | 453 kts | 40° |
| 2026-04-17 09:28 | 66.05094 | 162.11927 | 39255 ft | 452 kts | 40° |
| 2026-04-17 09:29 | 66.09950 | 162.21772 | 39260 ft | 452 kts | 40° |
| 2026-04-17 09:29 | 66.14799 | 162.31658 | 39257 ft | 452 kts | 40° |
| 2026-04-17 09:30 | 66.19637 | 162.41569 | 39251 ft | 452 kts | 40° |
| 2026-04-17 09:30 | 66.24468 | 162.51517 | 39259 ft | 451 kts | 40° |
| 2026-04-17 09:31 | 66.29256 | 162.61426 | 39251 ft | 450 kts | 40° |
| 2026-04-17 09:31 | 66.34085 | 162.71469 | 39250 ft | 449 kts | 40° |
| 2026-04-17 09:32 | 66.38833 | 162.81395 | 39249 ft | 447 kts | 40° |
| 2026-04-17 09:32 | 66.43596 | 162.91410 | 39250 ft | 446 kts | 41° |
| 2026-04-17 09:33 | 66.48339 | 163.01429 | 39248 ft | 445 kts | 41° |
| 2026-04-17 09:33 | 66.53065 | 163.11467 | 39251 ft | 445 kts | 41° |
| 2026-04-17 09:34 | 66.57777 | 163.21525 | 39248 ft | 445 kts | 41° |
| 2026-04-17 09:34 | 66.62490 | 163.31641 | 39248 ft | 445 kts | 41° |
| 2026-04-17 09:35 | 66.67201 | 163.41798 | 39243 ft | 446 kts | 41° |
| 2026-04-17 09:35 | 66.71908 | 163.52005 | 39252 ft | 446 kts | 41° |
| 2026-04-17 09:36 | 66.76607 | 163.62245 | 39252 ft | 446 kts | 41° |
| 2026-04-17 09:36 | 66.81300 | 163.72528 | 39253 ft | 446 kts | 41° |
| 2026-04-17 09:37 | 66.85960 | 163.82792 | 39255 ft | 447 kts | 41° |
| 2026-04-17 09:37 | 66.90647 | 163.93168 | 39262 ft | 447 kts | 41° |
| 2026-04-17 09:38 | 66.95346 | 164.03630 | 39268 ft | 448 kts | 41° |
| 2026-04-17 09:38 | 67.00040 | 164.14135 | 39267 ft | 449 kts | 41° |
| 2026-04-17 09:39 | 67.04733 | 164.24691 | 39274 ft | 450 kts | 41° |
| 2026-04-17 09:39 | 67.09431 | 164.35313 | 39281 ft | 450 kts | 41° |
| 2026-04-17 09:40 | 67.14126 | 164.45991 | 39264 ft | 451 kts | 42° |
| 2026-04-17 09:40 | 67.18822 | 164.56729 | 39284 ft | 452 kts | 42° |
| 2026-04-17 09:41 | 67.23519 | 164.67527 | 39291 ft | 453 kts | 42° |
| 2026-04-17 09:41 | 67.28228 | 164.78409 | 39293 ft | 455 kts | 43° |
| 2026-04-17 09:42 | 67.32941 | 164.89364 | 39300 ft | 455 kts | 43° |
| 2026-04-17 09:42 | 67.37652 | 165.00373 | 39302 ft | 456 kts | 43° |
| 2026-04-17 09:43 | 67.42360 | 165.11437 | 39302 ft | 456 kts | 43° |
| 2026-04-17 09:43 | 67.47062 | 165.22548 | 39316 ft | 455 kts | 43° |
| 2026-04-17 09:44 | 67.51741 | 165.33668 | 39308 ft | 454 kts | 43° |
| 2026-04-17 09:44 | 67.56392 | 165.44782 | 39309 ft | 452 kts | 44° |
| 2026-04-17 09:45 | 67.60242 | 165.54031 | 39310 ft | 450 kts | 44° |
| 2026-04-17 09:45 | 67.64846 | 165.65146 | 39312 ft | 448 kts | 44° |
| 2026-04-17 09:46 | 67.69414 | 165.76235 | 39316 ft | 446 kts | 44° |
| 2026-04-17 09:46 | 67.73963 | 165.87341 | 39325 ft | 444 kts | 44° |
| 2026-04-17 09:47 | 67.78484 | 165.98438 | 39320 ft | 442 kts | 44° |
| 2026-04-17 09:47 | 67.82977 | 166.09521 | 39321 ft | 441 kts | 44° |
| 2026-04-17 09:48 | 67.87620 | 166.20095 | 39328 ft | 440 kts | 39° |
| 2026-04-17 09:48 | 67.92458 | 166.29814 | 39323 ft | 439 kts | 38° |
| 2026-04-17 09:49 | 67.97342 | 166.39575 | 39340 ft | 438 kts | 38° |
| 2026-04-17 09:49 | 68.02193 | 166.49436 | 39336 ft | 439 kts | 39° |
| 2026-04-17 09:50 | 68.07038 | 166.59414 | 39337 ft | 439 kts | 39° |
| 2026-04-17 09:50 | 68.11873 | 166.69436 | 39361 ft | 440 kts | 38° |
| 2026-04-17 09:51 | 68.16704 | 166.79517 | 39359 ft | 440 kts | 38° |
| 2026-04-17 09:51 | 68.21528 | 166.89637 | 39386 ft | 440 kts | 38° |
| 2026-04-17 09:52 | 68.26353 | 166.99813 | 39378 ft | 440 kts | 39° |
| 2026-04-17 09:52 | 68.31168 | 167.10024 | 39377 ft | 440 kts | 39° |
| 2026-04-17 09:53 | 68.35988 | 167.20303 | 39396 ft | 440 kts | 39° |
| 2026-04-17 09:53 | 68.40801 | 167.30614 | 39391 ft | 441 kts | 39° |
| 2026-04-17 09:54 | 68.45622 | 167.41008 | 39396 ft | 444 kts | 39° |
| 2026-04-17 09:54 | 68.50470 | 167.51515 | 39407 ft | 447 kts | 39° |
| 2026-04-17 09:55 | 68.55344 | 167.62148 | 39415 ft | 449 kts | 39° |
| 2026-04-17 09:55 | 68.60261 | 167.72924 | 38745 ft | 460 kts | 39° |
| 2026-04-17 09:56 | 68.62720 | 167.78338 | 38073 ft | 456 kts | 39° |
| 2026-04-17 09:56 | 68.65179 | 167.83766 | 37375 ft | 451 kts | 40° |
| 2026-04-17 09:56 | 68.67612 | 167.89154 | 36654 ft | 447 kts | 40° |
| 2026-04-17 09:56 | 68.70022 | 167.94504 | 35889 ft | 444 kts | 40° |
| 2026-04-17 09:57 | 68.72408 | 167.99819 | 35322 ft | 437 kts | 41° |
| 2026-04-17 09:57 | 68.74743 | 168.05031 | 34725 ft | 430 kts | 41° |
| 2026-04-17 09:57 | 68.77070 | 168.10245 | 33941 ft | 427 kts | 41° |
| 2026-04-17 09:57 | 68.79352 | 168.15369 | 33351 ft | 418 kts | 41° |
| 2026-04-17 09:58 | 68.81578 | 168.20381 | 32871 ft | 408 kts | 41° |
| 2026-04-17 09:58 | 68.83755 | 168.25295 | 32301 ft | 400 kts | 42° |
| 2026-04-17 09:58 | 68.85896 | 168.30141 | 31696 ft | 395 kts | 42° |
| 2026-04-17 09:58 | 68.88002 | 168.34922 | 31114 ft | 389 kts | 43° |
| 2026-04-17 09:59 | 68.90079 | 168.39654 | 30569 ft | 384 kts | 43° |
| 2026-04-17 09:59 | 68.92130 | 168.44335 | 29943 ft | 378 kts | 43° |
| 2026-04-17 09:59 | 68.94147 | 168.48950 | 29256 ft | 373 kts | 43° |
| 2026-04-17 09:59 | 68.96142 | 168.53528 | 28557 ft | 369 kts | 43° |
| 2026-04-17 10:00 | 68.98126 | 168.58082 | 27831 ft | 368 kts | 43° |
| 2026-04-17 10:00 | 69.00079 | 168.62582 | 27284 ft | 361 kts | 43° |
| 2026-04-17 10:00 | 69.01995 | 168.67007 | 26779 ft | 354 kts | 43° |
| 2026-04-17 10:00 | 69.03875 | 168.71363 | 26270 ft | 349 kts | 43° |
| 2026-04-17 10:01 | 69.05727 | 168.75661 | 25774 ft | 343 kts | 43° |
| 2026-04-17 10:01 | 69.07560 | 168.79918 | 25280 ft | 339 kts | 43° |
| 2026-04-17 10:01 | 69.09361 | 168.84118 | 24796 ft | 335 kts | 43° |
| 2026-04-17 10:01 | 69.11144 | 168.88285 | 24323 ft | 332 kts | 43° |
| 2026-04-17 10:02 | 69.12888 | 168.92369 | 23814 ft | 329 kts | 43° |
| 2026-04-17 10:02 | 69.14637 | 168.96465 | 23303 ft | 326 kts | 43° |
| 2026-04-17 10:02 | 69.16363 | 169.00523 | 22829 ft | 321 kts | 43° |
| 2026-04-17 10:02 | 69.18061 | 169.04525 | 22328 ft | 317 kts | 43° |
| 2026-04-17 10:03 | 69.19741 | 169.08507 | 21856 ft | 315 kts | 43° |
| 2026-04-17 10:03 | 69.21450 | 169.12457 | 21527 ft | 313 kts | 41° |
| 2026-04-17 10:03 | 69.23210 | 169.16265 | 21288 ft | 326 kts | 40° |
| 2026-04-17 10:03 | 69.25025 | 169.20120 | 20913 ft | 334 kts | 40° |
| 2026-04-17 10:04 | 69.26871 | 169.24028 | 20497 ft | 329 kts | 40° |
| 2026-04-17 10:04 | 69.28684 | 169.27880 | 20028 ft | 324 kts | 40° |
| 2026-04-17 10:04 | 69.30477 | 169.31711 | 19541 ft | 321 kts | 40° |
| 2026-04-17 10:04 | 69.32243 | 169.35506 | 19063 ft | 318 kts | 40° |
| 2026-04-17 10:05 | 69.33995 | 169.39287 | 18565 ft | 315 kts | 40° |
| 2026-04-17 10:05 | 69.35726 | 169.43035 | 18063 ft | 311 kts | 40° |
| 2026-04-17 10:05 | 69.37436 | 169.46743 | 17589 ft | 308 kts | 40° |
| 2026-04-17 10:05 | 69.39128 | 169.50422 | 17121 ft | 304 kts | 40° |
| 2026-04-17 10:06 | 69.40794 | 169.54056 | 16665 ft | 301 kts | 40° |
| 2026-04-17 10:06 | 69.42453 | 169.57682 | 16194 ft | 299 kts | 40° |
| 2026-04-17 10:06 | 69.44096 | 169.61279 | 15742 ft | 297 kts | 40° |
| 2026-04-17 10:06 | 69.45729 | 169.64863 | 15271 ft | 296 kts | 40° |
| 2026-04-17 10:07 | 69.47353 | 169.68434 | 14810 ft | 294 kts | 40° |
| 2026-04-17 10:07 | 69.48968 | 169.71993 | 14365 ft | 293 kts | 40° |
| 2026-04-17 10:07 | 69.50580 | 169.75549 | 13886 ft | 293 kts | 40° |
| 2026-04-17 10:07 | 69.52207 | 169.79149 | 13396 ft | 297 kts | 40° |
| 2026-04-17 10:08 | 69.53851 | 169.82795 | 12919 ft | 301 kts | 40° |
| 2026-04-17 10:08 | 69.55498 | 169.86451 | 12450 ft | 303 kts | 40° |
| 2026-04-17 10:08 | 69.57175 | 169.90177 | 11971 ft | 300 kts | 40° |
| 2026-04-17 10:08 | 69.58813 | 169.93829 | 11483 ft | 297 kts | 40° |
| 2026-04-17 10:09 | 69.60437 | 169.97453 | 11013 ft | 294 kts | 40° |
| 2026-04-17 10:09 | 69.62065 | 170.00745 | 10799 ft | 287 kts | 30° |
| 2026-04-17 10:09 | 69.63946 | 170.02428 | 10629 ft | 281 kts | 14° |
| 2026-04-17 10:09 | 69.65868 | 170.03261 | 10478 ft | 270 kts | 12° |
| 2026-04-17 10:10 | 69.67733 | 170.04006 | 9894 ft | 276 kts | 12° |
| 2026-04-17 10:10 | 69.69572 | 170.04744 | 9707 ft | 266 kts | 12° |
| 2026-04-17 10:10 | 69.71427 | 170.05511 | 9217 ft | 269 kts | 12° |
| 2026-04-17 10:11 | 69.75109 | 170.07069 | 8476 ft | 265 kts | 12° |
| 2026-04-17 10:11 | 69.76927 | 170.07853 | 8148 ft | 263 kts | 12° |
| 2026-04-17 10:11 | 69.78734 | 170.08637 | 7817 ft | 260 kts | 12° |
| 2026-04-17 10:11 | 69.80512 | 170.09408 | 7502 ft | 258 kts | 12° |
| 2026-04-17 10:12 | 69.82277 | 170.10175 | 7241 ft | 253 kts | 12° |
| 2026-04-17 10:12 | 69.84010 | 170.10929 | 6945 ft | 251 kts | 12° |
| 2026-04-17 10:12 | 69.85732 | 170.11682 | 6628 ft | 249 kts | 12° |
| 2026-04-17 10:12 | 69.87439 | 170.12427 | 6305 ft | 247 kts | 11° |
| 2026-04-17 10:13 | 69.89131 | 170.13168 | 6004 ft | 245 kts | 11° |
| 2026-04-17 10:13 | 69.90813 | 170.13905 | 5692 ft | 243 kts | 11° |
| 2026-04-17 10:13 | 69.92479 | 170.14637 | 5395 ft | 242 kts | 11° |
| 2026-04-17 10:13 | 69.94142 | 170.15372 | 5101 ft | 240 kts | 11° |
| 2026-04-17 10:14 | 69.95780 | 170.16158 | 4788 ft | 237 kts | 18° |
| 2026-04-17 10:14 | 69.97117 | 170.18532 | 4565 ft | 224 kts | 51° |
| 2026-04-17 10:14 | 69.97909 | 170.22346 | 4304 ft | 216 kts | 75° |
| 2026-04-17 10:14 | 69.98226 | 170.26510 | 4115 ft | 211 kts | 78° |
| 2026-04-17 10:15 | 69.98560 | 170.30642 | 3903 ft | 207 kts | 78° |
| 2026-04-17 10:15 | 69.98892 | 170.34697 | 3700 ft | 203 kts | 78° |
| 2026-04-17 10:15 | 69.99216 | 170.38682 | 3495 ft | 199 kts | 81° |
| 2026-04-17 10:15 | 69.99086 | 170.42584 | 3291 ft | 194 kts | 116° |
| 2026-04-17 10:16 | 69.98217 | 170.45483 | 3158 ft | 190 kts | 142° |
| 2026-04-17 10:16 | 69.97020 | 170.46955 | 2997 ft | 184 kts | 162° |
| 2026-04-17 10:16 | 69.95807 | 170.47769 | 2819 ft | 173 kts | 162° |
| 2026-04-17 10:16 | 69.94677 | 170.48545 | 2661 ft | 160 kts | 162° |
| 2026-04-17 10:17 | 69.93635 | 170.49265 | 2510 ft | 149 kts | 165° |
| 2026-04-17 10:17 | 69.92646 | 170.49944 | 2410 ft | 144 kts | 165° |
| 2026-04-17 10:17 | 69.91691 | 170.50605 | 2276 ft | 139 kts | 165° |
| 2026-04-17 10:17 | 69.90795 | 170.51221 | 2112 ft | 128 kts | 165° |
| 2026-04-17 10:18 | 69.89951 | 170.51799 | 1948 ft | 123 kts | 165° |
| 2026-04-17 10:18 | 69.89109 | 170.52375 | 1821 ft | 126 kts | 166° |
| 2026-04-17 10:18 | 69.88254 | 170.52960 | 1654 ft | 125 kts | 166° |
| 2026-04-17 10:18 | 69.87410 | 170.53539 | 1503 ft | 124 kts | 165° |
| 2026-04-17 10:19 | 69.86569 | 170.54117 | 1343 ft | 125 kts | 166° |
| 2026-04-17 10:19 | 69.85726 | 170.54692 | 1175 ft | 124 kts | 166° |
| 2026-04-17 10:19 | 69.84888 | 170.55264 | 1031 ft | 123 kts | 166° |
| 2026-04-17 10:19 | 69.84050 | 170.55835 | 874 ft | 124 kts | 166° |
| 2026-04-17 10:20 | 69.83215 | 170.56400 | 736 ft | 123 kts | 166° |
| 2026-04-17 10:20 | 69.82380 | 170.56967 | 577 ft | 123 kts | 166° |
| 2026-04-17 10:20 | 69.81550 | 170.57508 | 398 ft | 122 kts | 168° |
| 2026-04-17 10:20 | 69.80724 | 170.58030 | 300 ft | 121 kts | 166° |
| 2026-04-17 10:21 | 69.79911 | 170.58624 | 153 ft | 121 kts | 167° |
| 2026-04-17 10:21 | 69.79090 | 170.59163 | 30 ft | 119 kts | 168° |
| 2026-04-17 10:21 | 69.78407 | 170.59613 | 28 ft | 79 kts | 167° |
| 2026-04-17 10:21 | 69.78068 | 170.59841 | 30 ft | 42 kts | 167° |
| 2026-04-17 10:22 | 69.77948 | 170.59949 | 29 ft | 10 kts | 145° |
| 2026-04-17 10:22 | 69.77918 | 170.59943 | 29 ft | 5 kts | 297° |
| 2026-04-17 10:22 | 69.77959 | 170.59912 | 29 ft | 8 kts | 349° |
| 2026-04-17 10:22 | 69.78029 | 170.59870 | 29 ft | 14 kts | 346° |
| 2026-04-17 10:23 | 69.78137 | 170.59796 | 32 ft | 18 kts | 347° |
| 2026-04-17 10:23 | 69.78277 | 170.59701 | 30 ft | 23 kts | 347° |
| 2026-04-17 10:23 | 69.78441 | 170.59590 | 27 ft | 26 kts | 347° |
| 2026-04-17 10:23 | 69.78615 | 170.59473 | 30 ft | 25 kts | 347° |
| 2026-04-17 10:24 | 69.78749 | 170.59383 | 30 ft | 14 kts | 347° |
| 2026-04-17 10:24 | 69.78810 | 170.59496 | 32 ft | 12 kts | 74° |
| 2026-04-17 10:24 | 69.78830 | 170.59736 | 33 ft | 13 kts | 77° |
| 2026-04-17 10:24 | 69.78840 | 170.59903 | 33 ft | 13 kts | 94° |
| 2026-04-17 10:25 | 69.78773 | 170.60051 | 31 ft | 13 kts | 165° |
| 2026-04-17 10:25 | 69.78691 | 170.60144 | 31 ft | 12 kts | 126° |
| 2026-04-17 10:25 | 69.78710 | 170.60219 | 32 ft | 5 kts | 340° |
| 2026-04-17 10:25 | 69.78721 | 170.60180 | 31 ft | 0 kts | 293° |